createdAt,value
2022-08-21T00:00:44.396Z,99478.44
2022-08-21T00:03:12.267Z,99478.44
2022-08-21T00:05:43.443Z,99478.53
2022-08-21T00:08:10.279Z,99477.34
2022-08-21T00:10:37.241Z,99473.88
2022-08-21T00:13:07.693Z,99464.91
2022-08-21T00:15:36.916Z,99466.19
2022-08-21T00:18:05.691Z,99465.09
2022-08-21T00:20:34.461Z,99464.66
2022-08-21T00:23:01.703Z,99455.09
2022-08-21T00:25:28.519Z,99457.75
2022-08-21T00:27:56.410Z,99453.88
2022-08-21T00:30:26.542Z,99461.16
2022-08-21T00:32:54.692Z,99456.34
2022-08-21T00:35:28.900Z,99455.72
2022-08-21T00:37:55.777Z,99454.06
2022-08-21T00:40:32.875Z,99460.34
2022-08-21T00:42:59.589Z,99461.34
2022-08-21T00:45:26.697Z,99470.28
2022-08-21T00:47:53.581Z,99460.78
2022-08-21T00:50:21.925Z,99469.56
2022-08-21T00:52:51.465Z,99468.47
2022-08-21T00:55:20.224Z,99468.56
2022-08-21T00:57:52.236Z,99476.72
2022-08-21T01:00:23.740Z,99472.03
2022-08-21T01:02:50.589Z,99465.91
2022-08-21T01:05:17.252Z,99464.75
2022-08-21T01:07:44.329Z,99456.13
2022-08-21T01:10:20.545Z,99454.09
2022-08-21T01:12:53.432Z,99456.88
2022-08-21T01:15:20.476Z,99457.34
2022-08-21T01:17:48.368Z,99457.88
2022-08-21T01:20:14.987Z,99463.63
2022-08-21T01:22:41.638Z,99462.53
2022-08-21T01:25:09.972Z,99454.63
2022-08-21T01:27:37.366Z,99460.28
2022-08-21T01:30:12.174Z,99456.13
2022-08-21T01:32:38.855Z,99457.59
2022-08-21T01:35:07.300Z,99453.00
2022-08-21T01:37:34.569Z,99448.88
2022-08-21T01:40:01.246Z,99448.53
2022-08-21T01:42:27.950Z,99441.31
2022-08-21T01:44:56.238Z,99442.81
2022-08-21T01:47:23.410Z,99440.03
2022-08-21T01:49:50.589Z,99451.53
2022-08-21T01:52:17.390Z,99453.03
2022-08-21T01:54:44.074Z,99456.44
2022-08-21T01:57:11.553Z,99457.91
2022-08-21T01:59:38.280Z,99472.84
2022-08-21T02:02:05.958Z,99459.97
2022-08-21T02:04:33.482Z,99457.31
2022-08-21T02:07:01.363Z,99447.50
2022-08-21T02:09:28.634Z,99447.38
2022-08-21T02:11:56.218Z,99450.44
2022-08-21T02:14:28.636Z,99455.41
2022-08-21T02:17:09.512Z,99446.75
2022-08-21T02:19:39.990Z,99441.31
2022-08-21T02:22:11.249Z,99446.53
2022-08-21T02:24:54.173Z,99448.88
2022-08-21T02:27:26.202Z,99447.25
2022-08-21T02:29:55.684Z,99443.13
2022-08-21T02:32:22.307Z,99451.56
2022-08-21T02:34:48.997Z,99449.19
2022-08-21T02:37:15.726Z,99439.22
2022-08-21T02:39:42.490Z,99430.56
2022-08-21T02:42:09.141Z,99428.75
2022-08-21T02:44:35.753Z,99437.03
2022-08-21T02:47:02.375Z,99432.88
2022-08-21T02:49:29.124Z,99435.03
2022-08-21T02:51:55.715Z,99435.09
2022-08-21T02:54:22.331Z,99433.53
2022-08-21T02:56:49.021Z,99425.75
2022-08-21T02:59:15.722Z,99428.00
2022-08-21T03:01:42.417Z,99439.78
2022-08-21T03:04:09.211Z,99432.34
2022-08-21T03:06:35.896Z,99438.81
2022-08-21T03:09:03.159Z,99432.13
2022-08-21T03:11:29.808Z,99444.25
2022-08-21T03:13:56.459Z,99436.03
2022-08-21T03:16:23.107Z,99436.38
2022-08-21T03:18:49.901Z,99438.84
2022-08-21T03:21:16.532Z,99431.41
2022-08-21T03:23:43.216Z,99431.31
2022-08-21T03:26:10.769Z,99437.50
2022-08-21T03:28:37.663Z,99436.69
2022-08-21T03:31:04.444Z,99435.88
2022-08-21T03:33:31.065Z,99427.69
2022-08-21T03:36:05.149Z,99444.06
2022-08-21T03:38:34.128Z,99438.31
2022-08-21T03:41:01.825Z,99438.84
2022-08-21T03:43:31.271Z,99442.34
2022-08-21T03:46:01.415Z,99443.13
2022-08-21T03:48:28.273Z,99440.13
2022-08-21T03:50:54.922Z,99434.81
2022-08-21T03:53:22.207Z,99434.81
2022-08-21T03:55:50.885Z,99433.53
2022-08-21T03:58:20.260Z,99441.06
2022-08-21T04:00:50.068Z,99447.22
2022-08-21T04:03:17.095Z,99444.78
2022-08-21T04:05:44.452Z,99450.88
2022-08-21T04:08:11.093Z,99455.19
2022-08-21T04:10:39.807Z,99454.78
2022-08-21T04:13:07.682Z,99464.50
2022-08-21T04:15:34.504Z,99454.09
2022-08-21T04:18:01.274Z,99461.97
2022-08-21T04:20:28.084Z,99468.41
2022-08-21T04:22:55.302Z,99465.84
2022-08-21T04:25:23.665Z,99460.53
2022-08-21T04:27:50.401Z,99468.56
2022-08-21T04:30:17.926Z,99466.94
2022-08-21T04:32:47.065Z,99462.41
2022-08-21T04:35:18.578Z,99459.09
2022-08-21T04:37:45.258Z,99460.69
2022-08-21T04:40:14.056Z,99468.56
2022-08-21T04:42:49.677Z,99472.16
2022-08-21T04:45:38.266Z,99473.22
2022-08-21T04:48:12.018Z,99476.75
2022-08-21T04:50:45.612Z,99474.78
2022-08-21T04:53:39.935Z,99471.53
2022-08-21T04:56:13.734Z,99483.06
2022-08-21T04:58:40.834Z,99481.34
2022-08-21T05:01:12.663Z,99477.94
2022-08-21T05:03:40.461Z,99479.78
2022-08-21T05:06:11.165Z,99476.69
2022-08-21T05:08:38.475Z,99481.94
2022-08-21T05:11:05.538Z,99480.22
2022-08-21T05:13:32.483Z,99473.88
2022-08-21T05:15:59.119Z,99472.75
2022-08-21T05:18:25.963Z,99475.91
2022-08-21T05:20:52.614Z,99478.03
2022-08-21T05:23:19.293Z,99484.81
2022-08-21T05:25:46.134Z,99481.41
2022-08-21T05:28:13.010Z,99481.75
2022-08-21T05:30:40.182Z,99478.78
2022-08-21T05:33:08.048Z,99486.66
2022-08-21T05:35:34.862Z,99481.41
2022-08-21T05:38:01.803Z,99478.81
2022-08-21T05:40:28.642Z,99485.97
2022-08-21T05:42:56.606Z,99486.94
2022-08-21T05:45:42.922Z,99481.25
2022-08-21T05:48:19.567Z,99479.78
2022-08-21T05:50:47.635Z,99486.06
2022-08-21T05:53:15.863Z,99493.06
2022-08-21T05:55:46.049Z,99483.28
2022-08-21T05:58:15.110Z,99490.13
2022-08-21T06:00:41.802Z,99493.53
2022-08-21T06:03:13.249Z,99497.50
2022-08-21T06:05:39.889Z,99495.03
2022-08-21T06:08:06.536Z,99500.69
2022-08-21T06:10:33.137Z,99498.03
2022-08-21T06:12:59.870Z,99496.31
2022-08-21T06:15:26.722Z,99509.53
2022-08-21T06:17:55.269Z,99502.72
2022-08-21T06:20:22.892Z,99506.75
2022-08-21T06:22:49.660Z,99505.91
2022-08-21T06:25:16.457Z,99517.81
2022-08-21T06:27:43.088Z,99508.47
2022-08-21T06:30:10.667Z,99513.34
2022-08-21T06:32:37.460Z,99511.88
2022-08-21T06:35:06.662Z,99514.13
2022-08-21T06:37:33.318Z,99518.16
2022-08-21T06:40:00.061Z,99511.75
2022-08-21T06:42:27.949Z,99513.13
2022-08-21T06:44:54.878Z,99506.22
2022-08-21T06:47:21.559Z,99510.03
2022-08-21T06:49:48.303Z,99510.56
2022-08-21T06:52:16.454Z,99508.84
2022-08-21T06:54:43.213Z,99510.00
2022-08-21T06:57:09.852Z,99512.06
2022-08-21T06:59:36.609Z,99505.00
2022-08-21T07:02:03.528Z,99510.00
2022-08-21T07:04:30.185Z,99515.41
2022-08-21T07:06:56.856Z,99523.63
2022-08-21T07:09:25.137Z,99512.41
2022-08-21T07:11:55.033Z,99513.31
2022-08-21T07:14:21.980Z,99508.50
2022-08-21T07:16:49.610Z,99521.31
2022-08-21T07:19:16.258Z,99528.03
2022-08-21T07:21:42.893Z,99521.09
2022-08-21T07:24:09.728Z,99519.59
2022-08-21T07:26:37.156Z,99515.88
2022-08-21T07:29:04.171Z,99516.66
2022-08-21T07:31:31.068Z,99508.09
2022-08-21T07:33:57.865Z,99502.19
2022-08-21T07:36:24.722Z,99512.44
2022-08-21T07:38:52.581Z,99504.41
2022-08-21T07:41:23.178Z,99505.72
2022-08-21T07:43:52.698Z,99506.91
2022-08-21T07:46:20.204Z,99512.03
2022-08-21T07:48:46.831Z,99505.69
2022-08-21T07:51:16.241Z,99508.53
2022-08-21T07:53:43.221Z,99513.78
2022-08-21T07:56:10.304Z,99509.03
2022-08-21T07:58:36.916Z,99504.16
2022-08-21T08:01:03.642Z,99500.41
2022-08-21T08:03:30.309Z,99496.25
2022-08-21T08:05:57.747Z,99494.84
2022-08-21T08:08:25.107Z,99491.19
2022-08-21T08:10:53.511Z,99482.66
2022-08-21T08:13:20.239Z,99473.53
2022-08-21T08:15:46.871Z,99484.13
2022-08-21T08:18:13.564Z,99482.53
2022-08-21T08:20:40.316Z,99472.56
2022-08-21T08:23:06.943Z,99480.72
2022-08-21T08:25:36.847Z,99487.66
2022-08-21T08:28:16.265Z,99482.16
2022-08-21T08:30:46.885Z,99476.13
2022-08-21T08:33:15.078Z,99477.06
2022-08-21T08:35:44.285Z,99469.78
2022-08-21T08:38:10.920Z,99474.44
2022-08-21T08:40:38.754Z,99472.59
2022-08-21T08:43:09.856Z,99472.34
2022-08-21T08:45:46.883Z,99472.47
2022-08-21T08:48:19.151Z,99471.75
2022-08-21T08:50:58.452Z,99474.19
2022-08-21T08:53:36.531Z,99481.28
2022-08-21T08:56:05.839Z,99481.81
2022-08-21T08:58:35.504Z,99475.28
2022-08-21T09:01:02.712Z,99478.41
2022-08-21T09:03:29.568Z,99483.88
2022-08-21T09:06:28.352Z,99474.97
2022-08-21T09:09:07.115Z,99483.59
2022-08-21T09:11:42.621Z,99480.66
2022-08-21T09:14:16.145Z,99476.88
2022-08-21T09:16:58.657Z,99476.50
2022-08-21T09:20:03.975Z,99481.72
2022-08-21T09:22:50.002Z,99477.16
2022-08-21T09:25:24.254Z,99474.66
2022-08-21T09:27:51.494Z,99477.59
2022-08-21T09:30:19.283Z,99469.19
2022-08-21T09:32:45.989Z,99474.47
2022-08-21T09:35:24.499Z,99474.69
2022-08-21T09:38:04.111Z,99469.16
2022-08-21T09:40:36.980Z,99468.63
2022-08-21T09:43:04.955Z,99475.19
2022-08-21T09:45:34.080Z,99474.03
2022-08-21T09:48:26.849Z,99470.25
2022-08-21T09:50:54.884Z,99469.97
2022-08-21T09:53:22.441Z,99475.78
2022-08-21T09:55:56.316Z,99469.50
2022-08-21T09:58:32.536Z,99465.22
2022-08-21T10:01:02.467Z,99467.28
2022-08-21T10:03:30.380Z,99465.78
2022-08-21T10:06:09.363Z,99463.53
2022-08-21T10:08:39.406Z,99470.06
2022-08-21T10:11:16.639Z,99466.41
2022-08-21T10:13:49.272Z,99471.03
2022-08-21T10:16:44.322Z,99468.84
2022-08-21T10:19:31.109Z,99470.50
2022-08-21T10:22:14.192Z,99464.97
2022-08-21T10:24:55.066Z,99467.56
2022-08-21T10:27:43.338Z,99477.75
2022-08-21T10:30:18.883Z,99471.59
2022-08-21T10:33:24.886Z,99475.25
2022-08-21T10:36:15.238Z,99473.56
2022-08-21T10:39:17.477Z,99477.53
2022-08-21T10:42:42.463Z,99474.13
2022-08-21T10:45:16.974Z,99468.03
2022-08-21T10:47:51.528Z,99461.63
2022-08-21T10:50:33.135Z,99468.63
2022-08-21T10:53:33.976Z,99479.00
2022-08-21T10:56:20.652Z,99470.94
2022-08-21T10:59:17.351Z,99466.72
2022-08-21T11:02:04.955Z,99462.88
2022-08-21T11:04:43.380Z,99462.09
2022-08-21T11:07:27.575Z,99456.66
2022-08-21T11:10:27.080Z,99456.06
2022-08-21T11:13:08.303Z,99461.03
2022-08-21T11:15:56.476Z,99456.22
2022-08-21T11:18:35.634Z,99456.13
2022-08-21T11:21:29.132Z,99453.75
2022-08-21T11:24:02.377Z,99453.50
2022-08-21T11:26:38.891Z,99456.81
2022-08-21T11:29:14.879Z,99466.06
2022-08-21T11:31:56.772Z,99461.34
2022-08-21T11:34:57.072Z,99461.72
2022-08-21T11:37:24.443Z,99447.06
2022-08-21T11:39:53.945Z,99457.25
2022-08-21T11:42:46.770Z,99451.28
2022-08-21T11:45:33.825Z,99450.81
2022-08-21T11:48:14.876Z,99447.91
2022-08-21T11:50:45.256Z,99450.25
2022-08-21T11:53:31.727Z,99448.97
2022-08-21T11:56:06.654Z,99446.78
2022-08-21T11:58:47.256Z,99439.75
2022-08-21T12:01:20.490Z,99443.53
2022-08-21T12:04:09.948Z,99434.25
2022-08-21T12:06:42.116Z,99441.84
2022-08-21T12:09:32.841Z,99431.88
2022-08-21T12:12:06.238Z,99434.81
2022-08-21T12:14:45.852Z,99439.81
2022-08-21T12:17:22.153Z,99432.94
2022-08-21T12:20:20.894Z,99433.06
2022-08-21T12:23:15.945Z,99425.56
2022-08-21T12:25:59.880Z,99433.44
2022-08-21T12:28:28.715Z,99422.16
2022-08-21T12:30:58.102Z,99426.66
2022-08-21T12:33:30.600Z,99423.00
2022-08-21T12:36:13.026Z,99422.16
2022-08-21T12:39:04.752Z,99424.97
2022-08-21T12:42:01.992Z,99418.72
2022-08-21T12:44:50.840Z,99414.38
2022-08-21T12:47:43.450Z,99420.59
2022-08-21T12:50:14.740Z,99413.09
2022-08-21T12:53:18.621Z,99422.84
2022-08-21T12:55:47.383Z,99415.72
2022-08-21T12:58:22.588Z,99421.88
2022-08-21T13:01:04.460Z,99413.69
2022-08-21T13:03:33.064Z,99411.00
2022-08-21T13:06:00.254Z,99406.75
2022-08-21T13:08:28.670Z,99400.66
2022-08-21T13:11:13.597Z,99399.63
2022-08-21T13:13:46.980Z,99396.31
2022-08-21T13:16:27.827Z,99408.88
2022-08-21T13:19:05.663Z,99403.53
2022-08-21T13:21:36.103Z,99400.09
2022-08-21T13:24:38.761Z,99404.97
2022-08-21T13:27:02.500Z,99401.53
2022-08-21T13:29:32.921Z,99393.84
2022-08-21T13:32:02.834Z,99394.22
2022-08-21T13:34:37.546Z,99402.59
2022-08-21T13:37:09.896Z,99398.78
2022-08-21T13:39:36.789Z,99396.44
2022-08-21T13:42:11.784Z,99399.88
2022-08-21T13:44:44.658Z,99397.22
2022-08-21T13:47:14.252Z,99398.06
2022-08-21T13:49:45.115Z,99396.13
2022-08-21T13:52:25.891Z,99398.84
2022-08-21T13:54:56.412Z,99397.03
2022-08-21T13:57:41.305Z,99400.63
2022-08-21T14:00:16.151Z,99397.56
2022-08-21T14:02:46.463Z,99395.06
2022-08-21T14:05:34.267Z,99396.50
2022-08-21T14:08:09.603Z,99399.31
2022-08-21T14:10:43.471Z,99393.50
2022-08-21T14:13:55.993Z,99397.38
2022-08-21T14:16:28.831Z,99393.50
2022-08-21T14:19:03.714Z,99393.50
2022-08-21T14:21:39.303Z,99392.44
2022-08-21T14:24:06.117Z,99399.81
2022-08-21T14:26:35.294Z,99398.22
2022-08-21T14:29:02.368Z,99394.97
2022-08-21T14:31:37.024Z,99398.13
2022-08-21T14:34:19.265Z,99398.91
2022-08-21T14:36:47.993Z,99399.13
2022-08-21T14:39:14.733Z,99406.25
2022-08-21T14:41:42.431Z,99404.09
2022-08-21T14:44:10.171Z,99394.72
2022-08-21T14:46:43.973Z,99406.59
2022-08-21T14:49:24.862Z,99408.56
2022-08-21T14:51:54.176Z,99402.72
2022-08-21T14:54:23.206Z,99408.03
2022-08-21T14:57:02.019Z,99402.16
2022-08-21T14:59:28.753Z,99403.22
2022-08-21T15:01:55.378Z,99402.09
2022-08-21T15:04:21.971Z,99401.28
2022-08-21T15:06:48.598Z,99399.63
2022-08-21T15:09:15.285Z,99400.91
2022-08-21T15:11:43.270Z,99398.63
2022-08-21T15:14:21.426Z,99398.41
2022-08-21T15:16:49.176Z,99389.63
2022-08-21T15:19:15.849Z,99391.81
2022-08-21T15:21:42.479Z,99393.13
2022-08-21T15:24:09.253Z,99385.75
2022-08-21T15:26:37.582Z,99393.06
2022-08-21T15:29:07.031Z,99381.25
2022-08-21T15:31:34.228Z,99392.78
2022-08-21T15:34:00.860Z,99387.19
2022-08-21T15:36:27.750Z,99397.75
2022-08-21T15:38:54.378Z,99394.72
2022-08-21T15:41:21.103Z,99399.81
2022-08-21T15:43:51.570Z,99390.22
2022-08-21T15:46:20.179Z,99390.84
2022-08-21T15:48:47.252Z,99385.25
2022-08-21T15:51:15.963Z,99381.00
2022-08-21T15:53:42.645Z,99372.41
2022-08-21T15:56:18.089Z,99377.88
2022-08-21T15:58:44.800Z,99372.16
2022-08-21T16:01:11.545Z,99383.06
2022-08-21T16:03:39.421Z,99387.06
2022-08-21T16:06:06.235Z,99386.59
2022-08-21T16:08:32.913Z,99389.88
2022-08-21T16:11:01.337Z,99387.41
2022-08-21T16:13:36.594Z,99394.22
2022-08-21T16:16:03.789Z,99393.25
2022-08-21T16:18:30.484Z,99393.97
2022-08-21T16:20:57.194Z,99393.19
2022-08-21T16:23:23.929Z,99383.69
2022-08-21T16:25:51.181Z,99386.41
2022-08-21T16:28:20.370Z,99385.97
2022-08-21T16:30:49.876Z,99391.09
2022-08-21T16:33:34.924Z,99390.47
2022-08-21T16:36:04.325Z,99391.31
2022-08-21T16:38:32.176Z,99389.38
2022-08-21T16:41:00.148Z,99390.34
2022-08-21T16:43:29.572Z,99390.72
2022-08-21T16:45:58.168Z,99396.78
2022-08-21T16:48:25.191Z,99385.25
2022-08-21T16:50:51.977Z,99388.66
2022-08-21T16:53:18.600Z,99388.88
2022-08-21T16:55:48.060Z,99382.47
2022-08-21T16:58:35.658Z,99384.28
2022-08-21T17:01:07.607Z,99378.25
2022-08-21T17:03:41.048Z,99384.91
2022-08-21T17:06:08.767Z,99381.25
2022-08-21T17:08:35.599Z,99386.09
2022-08-21T17:11:04.040Z,99376.97
2022-08-21T17:13:30.957Z,99389.81
2022-08-21T17:15:57.851Z,99381.47
2022-08-21T17:18:26.540Z,99388.69
2022-08-21T17:20:53.304Z,99381.28
2022-08-21T17:23:20.542Z,99385.53
2022-08-21T17:25:51.859Z,99384.91
2022-08-21T17:28:25.720Z,99383.88
2022-08-21T17:30:54.849Z,99389.50
2022-08-21T17:33:23.322Z,99390.16
2022-08-21T17:35:49.982Z,99385.72
2022-08-21T17:38:16.651Z,99382.94
2022-08-21T17:40:44.271Z,99385.34
2022-08-21T17:43:13.177Z,99388.34
2022-08-21T17:45:41.301Z,99384.00
2022-08-21T17:48:08.174Z,99386.41
2022-08-21T17:50:35.109Z,99391.06
2022-08-21T17:53:01.856Z,99388.13
2022-08-21T17:55:29.605Z,99387.63
2022-08-21T17:57:57.425Z,99390.94
2022-08-21T18:00:26.608Z,99390.28
2022-08-21T18:03:05.240Z,99385.94
2022-08-21T18:05:32.006Z,99386.25
2022-08-21T18:07:58.959Z,99386.69
2022-08-21T18:10:26.278Z,99396.50
2022-08-21T18:12:53.364Z,99401.34
2022-08-21T18:15:20.503Z,99407.78
2022-08-21T18:17:50.134Z,99406.00
2022-08-21T18:20:19.210Z,99401.28
2022-08-21T18:22:46.059Z,99403.78
2022-08-21T18:25:13.607Z,99406.59
2022-08-21T18:27:42.150Z,99409.38
2022-08-21T18:30:09.401Z,99414.88
2022-08-21T18:32:36.563Z,99405.13
2022-08-21T18:35:05.979Z,99407.16
2022-08-21T18:37:33.143Z,99407.38
2022-08-21T18:40:00.254Z,99414.41
2022-08-21T18:42:29.482Z,99414.50
2022-08-21T18:45:01.665Z,99409.78
2022-08-21T18:47:32.595Z,99413.56
2022-08-21T18:49:59.800Z,99410.09
2022-08-21T18:52:28.570Z,99405.69
2022-08-21T18:54:55.545Z,99399.50
2022-08-21T18:57:25.415Z,99404.63
2022-08-21T18:59:52.045Z,99399.22
2022-08-21T19:02:18.995Z,99394.56
2022-08-21T19:04:45.644Z,99398.19
2022-08-21T19:07:14.335Z,99400.56
2022-08-21T19:09:52.660Z,99399.50
2022-08-21T19:12:29.511Z,99407.78
2022-08-21T19:14:56.634Z,99409.22
2022-08-21T19:17:25.673Z,99401.56
2022-08-21T19:19:52.721Z,99406.94
2022-08-21T19:22:19.339Z,99404.44
2022-08-21T19:24:49.814Z,99409.63
2022-08-21T19:27:17.978Z,99411.94
2022-08-21T19:29:44.999Z,99414.28
2022-08-21T19:32:12.659Z,99406.19
2022-08-21T19:34:40.684Z,99403.50
2022-08-21T19:37:11.006Z,99390.34
2022-08-21T19:39:37.894Z,99391.59
2022-08-21T19:42:05.651Z,99387.28
2022-08-21T19:44:32.859Z,99383.19
2022-08-21T19:46:59.794Z,99385.00
2022-08-21T19:49:34.424Z,99381.63
2022-08-21T19:52:02.289Z,99374.84
2022-08-21T19:54:39.556Z,99370.25
2022-08-21T19:57:08.808Z,99367.13
2022-08-21T19:59:37.051Z,99375.81
2022-08-21T20:02:03.733Z,99371.50
2022-08-21T20:04:30.362Z,99381.06
2022-08-21T20:06:57.154Z,99371.28
2022-08-21T20:09:23.990Z,99375.66
2022-08-21T20:11:54.318Z,99372.75
2022-08-21T20:14:25.895Z,99369.06
2022-08-21T20:17:04.856Z,99361.69
2022-08-21T20:19:32.009Z,99364.75
2022-08-21T20:21:58.886Z,99365.84
2022-08-21T20:24:27.345Z,99365.78
2022-08-21T20:26:54.502Z,99365.28
2022-08-21T20:29:23.924Z,99353.97
2022-08-21T20:31:52.700Z,99359.28
2022-08-21T20:34:19.485Z,99349.81
2022-08-21T20:36:47.466Z,99353.16
2022-08-21T20:39:14.977Z,99353.47
2022-08-21T20:41:43.894Z,99356.41
2022-08-21T20:44:15.876Z,99354.56
2022-08-21T20:46:43.412Z,99344.81
2022-08-21T20:49:20.045Z,99344.16
2022-08-21T20:51:50.788Z,99334.22
2022-08-21T20:54:33.588Z,99336.44
2022-08-21T20:57:13.630Z,99332.53
2022-08-21T20:59:52.741Z,99335.69
2022-08-21T21:02:26.542Z,99330.75
2022-08-21T21:05:20.652Z,99331.16
2022-08-21T21:08:11.877Z,99328.47
2022-08-21T21:10:49.588Z,99335.81
2022-08-21T21:13:53.534Z,99331.81
2022-08-21T21:16:36.232Z,99332.06
2022-08-21T21:19:37.339Z,99327.25
2022-08-21T21:22:10.224Z,99330.50
2022-08-21T21:25:04.300Z,99335.97
2022-08-21T21:27:43.192Z,99334.47
2022-08-21T21:30:23.040Z,99342.59
2022-08-21T21:32:50.745Z,99342.19
2022-08-21T21:35:32.240Z,99339.84
2022-08-21T21:38:13.599Z,99340.06
2022-08-21T21:41:05.748Z,99335.09
2022-08-21T21:44:03.457Z,99339.41
2022-08-21T21:46:56.992Z,99341.69
2022-08-21T21:49:51.788Z,99345.19
2022-08-21T21:52:27.624Z,99340.59
2022-08-21T21:55:40.146Z,99331.94
2022-08-21T21:58:18.714Z,99335.03
2022-08-21T22:01:03.506Z,99322.00
2022-08-21T22:04:00.291Z,99329.44
2022-08-21T22:06:33.233Z,99324.81
2022-08-21T22:08:59.882Z,99330.06
2022-08-21T22:11:55.522Z,99324.53
2022-08-21T22:14:32.177Z,99331.94
2022-08-21T22:17:07.733Z,99329.94
2022-08-21T22:19:40.844Z,99328.84
2022-08-21T22:22:15.112Z,99326.69
2022-08-21T22:24:46.768Z,99333.44
2022-08-21T22:27:22.206Z,99328.22
2022-08-21T22:29:52.873Z,99325.03
2022-08-21T22:32:33.478Z,99317.53
2022-08-21T22:35:10.190Z,99321.34
2022-08-21T22:37:43.538Z,99316.56
2022-08-21T22:40:13.588Z,99315.78
2022-08-21T22:42:42.636Z,99308.34
2022-08-21T22:45:12.347Z,99307.38
2022-08-21T22:47:44.906Z,99302.72
2022-08-21T22:50:41.732Z,99308.44
2022-08-21T22:53:10.082Z,99303.75
2022-08-21T22:55:45.272Z,99298.44
2022-08-21T22:58:13.101Z,99297.69
2022-08-21T23:00:45.571Z,99300.38
2022-08-21T23:03:25.582Z,99296.72
2022-08-21T23:05:53.414Z,99294.22
2022-08-21T23:08:38.223Z,99294.38
2022-08-21T23:11:13.440Z,99290.38
2022-08-21T23:13:44.919Z,99299.22
2022-08-21T23:16:23.413Z,99299.97
2022-08-21T23:19:19.141Z,99289.94
2022-08-21T23:21:54.909Z,99296.72
2022-08-21T23:24:33.680Z,99294.56
2022-08-21T23:27:32.001Z,99288.28
2022-08-21T23:30:25.066Z,99289.34
2022-08-21T23:32:54.066Z,99298.94
2022-08-21T23:35:24.982Z,99298.53
2022-08-21T23:38:29.566Z,99300.75
2022-08-21T23:41:11.252Z,99292.50
2022-08-21T23:44:13.209Z,99283.41
2022-08-21T23:47:01.492Z,99284.88
2022-08-21T23:49:44.056Z,99280.16
2022-08-21T23:52:26.213Z,99290.66
2022-08-21T23:55:11.757Z,99286.00
2022-08-21T23:57:47.469Z,99285.13
